createdAt,value
2023-03-29T00:03:44.007Z,1.70
2023-03-29T00:08:47.215Z,1.83
2023-03-29T00:13:50.054Z,1.83
2023-03-29T00:18:54.063Z,2.03
2023-03-29T00:23:57.356Z,1.70
2023-03-29T00:28:59.889Z,1.70
2023-03-29T00:34:03.822Z,1.90
2023-03-29T00:39:06.388Z,1.73
2023-03-29T00:44:23.787Z,2.23
2023-03-29T00:49:27.784Z,1.50
2023-03-29T00:54:30.357Z,1.70
2023-03-29T00:59:35.446Z,1.80
2023-03-29T01:04:42.604Z,1.43
2023-03-29T01:09:48.630Z,1.60
2023-03-29T01:14:53.603Z,1.50
2023-03-29T01:19:59.625Z,1.80
2023-03-29T01:25:07.059Z,1.40
2023-03-29T01:30:14.062Z,1.77
2023-03-29T01:35:19.346Z,1.30
2023-03-29T01:40:21.965Z,2.03
2023-03-29T01:45:29.430Z,1.60
2023-03-29T01:50:36.794Z,1.43
2023-03-29T01:55:40.758Z,1.50
2023-03-29T02:00:45.359Z,1.20
2023-03-29T02:05:48.007Z,1.27
2023-03-29T02:10:51.923Z,1.40
2023-03-29T02:15:56.729Z,1.23
2023-03-29T02:21:00.289Z,1.50
2023-03-29T02:26:03.818Z,1.40
2023-03-29T02:31:13.160Z,1.23
2023-03-29T02:36:18.614Z,1.40
2023-03-29T02:41:22.052Z,1.10
2023-03-29T02:46:26.466Z,1.53
2023-03-29T02:51:30.914Z,1.30
2023-03-29T02:56:43.216Z,1.20
2023-03-29T03:01:47.299Z,1.50
2023-03-29T03:06:50.196Z,1.10
2023-03-29T03:11:52.806Z,1.50
2023-03-29T03:16:57.750Z,1.30
2023-03-29T03:22:00.823Z,1.40
2023-03-29T03:27:03.519Z,0.93
2023-03-29T03:32:07.875Z,1.20
2023-03-29T03:37:31.971Z,1.50
2023-03-29T03:42:34.620Z,1.10
2023-03-29T03:47:39.072Z,1.40
2023-03-29T03:53:00.780Z,1.20
2023-03-29T03:58:12.892Z,1.93
2023-03-29T04:03:17.258Z,1.43
2023-03-29T04:08:22.420Z,1.40
2023-03-29T04:13:47.433Z,1.60
2023-03-29T04:19:10.699Z,1.30
2023-03-29T04:24:14.681Z,1.63
2023-03-29T04:29:21.255Z,1.30
2023-03-29T04:34:32.190Z,1.20
2023-03-29T04:39:36.427Z,1.60
2023-03-29T04:44:42.593Z,1.53
2023-03-29T04:49:48.095Z,1.63
2023-03-29T04:54:59.246Z,1.40
2023-03-29T05:00:15.586Z,1.63
2023-03-29T05:05:38.460Z,1.77
2023-03-29T05:10:43.432Z,1.70
2023-03-29T05:15:46.387Z,1.83
2023-03-29T05:20:54.085Z,1.80
2023-03-29T05:25:57.899Z,1.47
2023-03-29T05:31:02.356Z,1.80
2023-03-29T05:36:08.039Z,1.80
2023-03-29T05:41:15.751Z,1.97
2023-03-29T05:46:37.009Z,2.13
2023-03-29T05:51:41.974Z,2.13
2023-03-29T05:56:45.089Z,1.90
2023-03-29T06:01:47.992Z,2.30
2023-03-29T06:06:55.843Z,2.27
2023-03-29T06:11:58.910Z,2.30
2023-03-29T06:17:07.937Z,2.47
2023-03-29T06:22:13.719Z,2.67
2023-03-29T06:27:17.578Z,2.30
2023-03-29T06:32:20.154Z,2.77
2023-03-29T06:37:50.470Z,2.50
2023-03-29T06:43:01.587Z,2.77
2023-03-29T06:48:22.818Z,2.60
2023-03-29T06:53:28.025Z,3.03
2023-03-29T06:58:35.792Z,3.20
2023-03-29T07:03:46.796Z,2.90
2023-03-29T07:08:53.631Z,2.67
2023-03-29T07:14:10.609Z,3.27
2023-03-29T07:19:14.334Z,3.00
2023-03-29T07:24:24.102Z,2.80
2023-03-29T07:29:28.663Z,3.30
2023-03-29T07:34:32.663Z,3.08
2023-03-29T07:39:37.201Z,3.20
2023-03-29T07:45:09.470Z,3.50
2023-03-29T07:50:22.955Z,3.30
2023-03-29T07:55:29.024Z,3.33
2023-03-29T08:00:39.266Z,3.13
2023-03-29T08:06:02.835Z,3.50
2023-03-29T08:11:08.806Z,3.20
2023-03-29T08:16:28.763Z,3.13
2023-03-29T08:21:40.337Z,7.80
2023-03-29T08:26:44.766Z,4.00
2023-03-29T08:31:49.222Z,3.35
2023-03-29T08:36:52.546Z,3.58
2023-03-29T08:42:16.115Z,3.55
2023-03-29T08:47:21.320Z,3.35
2023-03-29T08:52:32.128Z,3.47
2023-03-29T08:57:45.632Z,4.32
2023-03-29T09:02:53.959Z,3.20
2023-03-29T09:07:56.956Z,3.55
2023-03-29T09:13:10.128Z,3.33
2023-03-29T09:18:18.596Z,3.72
2023-03-29T09:23:45.485Z,3.55
2023-03-29T09:29:09.584Z,3.53
2023-03-29T09:34:15.661Z,3.50
2023-03-29T09:39:32.589Z,3.40
2023-03-29T09:44:47.571Z,3.67
2023-03-29T09:49:58.058Z,3.60
2023-03-29T09:55:03.633Z,3.92
2023-03-29T10:00:20.592Z,3.65
2023-03-29T10:05:25.917Z,3.88
2023-03-29T10:10:29.761Z,3.42
2023-03-29T10:15:34.099Z,3.35
2023-03-29T10:20:38.425Z,4.25
2023-03-29T10:25:42.830Z,3.22
2023-03-29T10:30:52.980Z,3.33
2023-03-29T10:35:56.503Z,3.60
2023-03-29T10:41:04.927Z,3.03
2023-03-29T10:46:10.729Z,2.92
2023-03-29T10:51:15.003Z,2.60
2023-03-29T10:56:35.560Z,2.58
2023-03-29T11:01:46.149Z,2.28
2023-03-29T11:06:52.508Z,2.50
2023-03-29T11:12:14.911Z,2.53
2023-03-29T11:17:25.736Z,2.60
2023-03-29T11:22:35.246Z,1.95
2023-03-29T11:27:41.684Z,2.55
2023-03-29T11:32:50.089Z,2.10
2023-03-29T11:37:56.676Z,2.42
2023-03-29T11:43:00.024Z,2.55
2023-03-29T11:48:06.026Z,2.67
2023-03-29T11:53:10.454Z,2.50
2023-03-29T11:58:16.465Z,2.65
2023-03-29T12:03:23.649Z,2.30
2023-03-29T12:08:27.927Z,2.22
2023-03-29T12:13:32.409Z,2.20
2023-03-29T12:18:39.361Z,2.70
2023-03-29T12:23:42.394Z,2.20
2023-03-29T12:29:01.078Z,2.15
2023-03-29T12:34:15.717Z,2.22
2023-03-29T12:39:37.367Z,2.60
2023-03-29T12:45:21.168Z,2.17
2023-03-29T12:50:28.444Z,1.80
2023-03-29T12:55:33.264Z,2.60
2023-03-29T13:00:44.532Z,2.05
2023-03-29T13:05:59.424Z,2.33
2023-03-29T13:11:02.180Z,2.03
2023-03-29T13:16:12.803Z,2.20
2023-03-29T13:21:22.813Z,2.13
2023-03-29T13:26:31.495Z,2.03
2023-03-29T13:31:38.393Z,2.42
2023-03-29T13:36:49.402Z,2.30
2023-03-29T13:41:53.281Z,2.55
2023-03-29T13:47:03.781Z,2.10
2023-03-29T13:52:16.221Z,2.13
2023-03-29T13:57:20.607Z,2.33
2023-03-29T14:02:30.542Z,2.50
2023-03-29T14:07:37.736Z,2.00
2023-03-29T14:12:42.038Z,2.20
2023-03-29T14:17:44.832Z,2.33
2023-03-29T14:22:49.238Z,2.00
2023-03-29T14:27:51.928Z,2.13
2023-03-29T14:32:55.188Z,2.03
2023-03-29T14:37:59.457Z,1.95
2023-03-29T14:43:05.708Z,1.90
2023-03-29T14:48:11.437Z,1.70
2023-03-29T14:53:19.142Z,1.50
2023-03-29T14:58:23.754Z,1.67
2023-03-29T15:03:27.705Z,1.60
2023-03-29T15:08:33.606Z,1.50
2023-03-29T15:13:36.440Z,1.58
2023-03-29T15:18:39.975Z,1.63
2023-03-29T15:23:48.201Z,1.60
2023-03-29T15:28:55.366Z,1.52
2023-03-29T15:34:09.383Z,1.38
2023-03-29T15:39:15.292Z,1.73
2023-03-29T15:44:18.768Z,1.30
2023-03-29T15:49:21.684Z,1.42
2023-03-29T15:54:25.694Z,1.65
2023-03-29T15:59:28.398Z,1.33
2023-03-29T16:04:31.263Z,1.50
2023-03-29T16:09:35.522Z,1.60
2023-03-29T16:14:38.684Z,1.70
2023-03-29T16:19:41.602Z,1.50
2023-03-29T16:24:45.604Z,1.48
2023-03-29T16:29:48.430Z,1.20
2023-03-29T16:34:51.107Z,1.30
2023-03-29T16:39:56.081Z,1.38
2023-03-29T16:44:59.168Z,1.60
2023-03-29T16:50:01.737Z,1.45
2023-03-29T16:55:07.120Z,1.30
2023-03-29T17:00:11.415Z,1.70
2023-03-29T17:05:14.289Z,1.55
2023-03-29T17:10:18.481Z,1.55
2023-03-29T17:15:21.313Z,1.85
2023-03-29T17:20:24.060Z,1.27
2023-03-29T17:25:28.177Z,1.58
2023-03-29T17:30:30.925Z,1.60
2023-03-29T17:35:33.476Z,1.40
2023-03-29T17:40:37.636Z,1.30
2023-03-29T17:45:40.363Z,1.65
2023-03-29T17:50:42.937Z,1.30
2023-03-29T17:55:47.062Z,1.38
2023-03-29T18:00:49.894Z,1.30
2023-03-29T18:05:52.628Z,1.50
2023-03-29T18:10:56.872Z,1.65
2023-03-29T18:15:59.737Z,1.80
2023-03-29T18:21:02.782Z,1.70
2023-03-29T18:26:07.587Z,3.50
2023-03-29T18:31:10.614Z,1.80
2023-03-29T18:36:13.929Z,1.67
2023-03-29T18:41:18.028Z,1.60
2023-03-29T18:46:21.064Z,1.58
2023-03-29T18:51:25.706Z,1.55
2023-03-29T18:56:29.849Z,1.40
2023-03-29T19:01:32.813Z,1.60
2023-03-29T19:06:35.839Z,1.50
2023-03-29T19:11:40.046Z,1.92
2023-03-29T19:16:42.891Z,1.60
2023-03-29T19:21:46.916Z,1.60
2023-03-29T19:26:52.068Z,1.65
2023-03-29T19:31:56.929Z,1.40
2023-03-29T19:37:00.846Z,1.27
2023-03-29T19:42:04.986Z,1.60
2023-03-29T19:47:07.573Z,1.50
2023-03-29T19:52:10.552Z,1.52
2023-03-29T19:57:14.638Z,1.60
2023-03-29T20:02:17.797Z,1.58
2023-03-29T20:07:20.466Z,1.90
2023-03-29T20:12:24.794Z,2.20
2023-03-29T20:17:28.065Z,1.63
2023-03-29T20:22:32.824Z,1.80
2023-03-29T20:27:36.874Z,2.03
2023-03-29T20:32:39.696Z,1.95
2023-03-29T20:37:42.308Z,2.05
2023-03-29T20:42:46.828Z,1.92
2023-03-29T20:47:56.394Z,2.20
2023-03-29T20:53:02.165Z,2.30
2023-03-29T20:58:07.852Z,2.20
2023-03-29T21:03:11.076Z,2.05
2023-03-29T21:08:17.500Z,2.20
2023-03-29T21:13:21.607Z,2.20
2023-03-29T21:18:24.384Z,2.40
2023-03-29T21:23:26.968Z,2.00
2023-03-29T21:28:31.509Z,2.20
2023-03-29T21:33:34.382Z,2.33
2023-03-29T21:38:36.991Z,1.90
2023-03-29T21:43:41.048Z,2.10
2023-03-29T21:48:43.887Z,2.60
2023-03-29T21:53:46.655Z,2.17
2023-03-29T21:58:50.630Z,2.03
2023-03-29T22:03:53.284Z,1.98
2023-03-29T22:08:55.970Z,2.20
2023-03-29T22:14:00.000Z,1.90
2023-03-29T22:19:02.669Z,2.17
2023-03-29T22:24:06.215Z,2.10
2023-03-29T22:29:10.093Z,2.13
2023-03-29T22:34:12.646Z,2.20
2023-03-29T22:39:15.402Z,2.00
2023-03-29T22:44:19.301Z,1.85
2023-03-29T22:49:22.149Z,2.20
2023-03-29T22:54:24.702Z,1.90
2023-03-29T22:59:28.796Z,2.22
2023-03-29T23:04:31.559Z,1.75
2023-03-29T23:09:34.275Z,1.95
2023-03-29T23:14:42.512Z,2.10
2023-03-29T23:19:45.102Z,2.33
2023-03-29T23:24:48.217Z,2.25
2023-03-29T23:29:52.166Z,2.28
2023-03-29T23:34:55.052Z,2.28
2023-03-29T23:39:57.630Z,2.50
2023-03-29T23:45:01.693Z,2.10
2023-03-29T23:50:04.963Z,1.98
2023-03-29T23:55:08.385Z,2.47
